Marys Corner, Washington
Current Conditions -  °F | °C
As of 5:15 AM on Wednesday 22 Oct 2014 (Local Time) from KCLS Reporting Station
Haze Haze  
Wind Chill: 55°   Ceiling: NA
Heat Index: 55°   Visibility: 4mi
Dew Point: 54°   Wind: 9mph
Humidity: 94%   Direction: 200°SSW
Pressure: 29.69"   Gusts: 18mph
Location:  46.6561°N, 122.993°W
Report Text: KCLS 221215Z AUTO 20008G16KT 4SM BR 13/12 A2969 RMK AO2
Loading
Personal Weather Stations






























Interactive Weather Map
Tropical Storm Tracking
New forecast layout! Learn more

10-Day Weather Forecast

Advertisements
Track Severe Weather on mobile